Fleetwood, New York
Current Conditions -  °F | °C
As of 4:51 PM on Sunday 25 Jan 2015 (Local Time) from KLGA Reporting Station
Broken Clouds Broken Clouds  
Wind Chill: 30°   Ceiling: 16000
Heat Index: 38°   Visibility: 10mi
Dew Point: 12°   Wind: 12mph
Humidity: 35%   Direction: 320°NW
Pressure: 29.84"   Gusts: NA
Location:  40.9243°N, 73.8256°W
Report Text: KLGA 252151Z 32010KT 10SM FEW045 SCT080 BKN160 BKN200 BKN250 03/M11 A2984 RMK AO2 SLP104 T00331111 $
Loading
Personal Weather Stations






























Interactive Weather Map New forecast layout! Learn more

10-Day Weather Forecast

Advertisements
Track Severe Weather on mobile